Etusivu
METAR-TAF:

METAR-TAF

Lentoasemat :

Capo Mele

Andora, Italia

Leveyspiiri: 43-57N, Pituuspiiri: 008-10E, korkeus merenpinnasta: 220 m

Tämänhetkinen sää

Tämä raportti tehtiin 1 tunti ja 4 minuuttia sitten, kello 18.55 UTC
tyyntä
Lämpötila 11°C
Kosteus 87%
Ilmanpaine 1025 hPa
Näkyvyys 10 km tai enemmän
ei pilviä alle 1500 m:ssä eikä cumulonimbus-pilviä

METAR: LIMU 211855Z 00000KT CAVOK 11/09 Q1025 RMK SCT SCT200 QUK / QUL / VIS MAR 25 KM VIS MIN 9999

Aika: 20:59 (19:59 UTC)


TAF: puuttuu

Säähavainnot ja -ennusteet yli 4000 lentoasemalta (METAR- ja TAF-raportit).

Käytössä olevat sääasemat on merkitty karttaan keltaisilla ja punaisilla pisteillä.

Aseta hiiri pisteen päälle nähdäksesi sääaseman nimen.

Klikkaa sitten nähdäksesi säähavainnot ja -ennusteet.

Kartan vaihtaminen: klikkaa mustalla rastilla varustettuja vihreitä pisteitä, niin voit zoomata sisään; viivalla varustettua vihreää pistettä, niin voit zoomata ulos tai vihreitä nuolia, niin pääset viereisille kartoille.


METAR-TAF: